OMDBDGAA

Guest
Details From OMDB - Dubai Intl
To DGAA - Kotoka Intl
Flight Number -
Tags Generated
Created
Modified
Stats Distance 3,397 nm / 6,292 km
Max Altitude 0 ft / 0 m
Waypoints 5
Social Downloads 2
Likes 0
Share VATSIM

Download

Looking for another format? Having issues loading an existing format? Contact us
Advertisement - Login to hide

Notes

Generated

Route

OMDB TERRI JDW55 ACC DGAA

ID Type Via Altitude Latitude Longitude Leg Dist Tot Dist Heading (true) Name
O OMDB APT - 0 ft / 0 m 25.26213˚ 55.34757˚ - 0 nm - -
TERRI FIX - 0 ft / 0 m 23.88595˚ 47.59514˚ 431 nm 431 nm 261° / 257° -
JDW55 FIX - 0 ft / 0 m 21.79135˚ 39.34454˚ 473 nm 904 nm 256° / 253° -
ACC VOR - 0 ft / 0 m 5.63411˚ -0.15534˚ 2489 nm 3394 nm 253° / 243° ACCRA VOR-DME
O DGAA APT - 0 ft / 0 m 5.59096˚ -0.17264˚ 2 nm 3397 nm 202° / 202° -

Altitude Profile

Advertisement - Login to hide

Weather


0- 5 10 15 20 25 30 35+ Temperature / ° C

Clouds and Precipitation
Forecast for 2018-05-27 12:00 UTC. Updated 5 hours ago

Ground ~20,000 ft ~40,000 ft Winds

OMDB

Details ICAO OMDB (DXB)
Name DUBAI INTL
Region United Arab Emirates
Timezone Asia/Dubai (UTC+4.0)
Stats Elevation 62 ft / 19 m (AMSL)
Location 25.254912° 55.364260°
Runways 2
Magnetic Variation 2.068° E

METAR

OMDB 271600Z 12010KT CAVOK 33/24 Q1006 NOSIG

Decode

TAF

TAF OMDB 271054Z 2712/2818 32015KT 8000 NSC PROB30 TEMPO 2712/2714 VRB15G25KT 3000 BLDU FEW040TCU BECMG 2716/2718 05005KT BECMG 2803/2805 19012KT BECMG 2808/2810 29014KT BECMG 2816/2818 01005KT

Decode

Departure Runways

ID Width Length Bearing (true) Bearing (mag) Surface Threshold Offset Overrun Length
12L 197 ft / 60 m 13,124 ft / 4,000 m 121.49° 119.42° Asphalt 1,312 ft / 400 m 395 ft / 120 m
12R 151 ft / 46 m 13,139 ft / 4,005 m 121.48° 119.41° Asphalt 394 ft / 120 m 197 ft / 60 m
30L 151 ft / 46 m 13,139 ft / 4,005 m 301.50° 299.43° Asphalt 2,953 ft / 900 m 197 ft / 60 m
30R 197 ft / 60 m 13,124 ft / 4,000 m 301.51° 299.44° Asphalt 0 ft / 0 m 395 ft / 120 m

DGAA

Details ICAO DGAA (ACC)
Name Accra_Kotoka_Intl
Region Ghana
Timezone Africa/Accra (UTC+0.0)
Stats Elevation 204 ft / 62 m (AMSL)
Location 5.602578° -0.167602°
Runways 1
Magnetic Variation 3.373° W

METAR

DGAA 271500Z 21011KT CAVOK 28/24 Q1012 NOSIG

Decode

TAF

TAF DGAA 271100Z 2712/2818 19010KT 9999 SCT025 TEMPO 2713/2716 25005KT BKN014CB BECMG 2720/2722 CAVOK FM281200 19015KT 9999 BKN015

Decode

Destination Runways

ID Width Length Bearing (true) Bearing (mag) Surface Threshold Offset Overrun Length
03 200 ft / 61 m 11,176 ft / 3,406 m 22.00° 25.37° Asphalt 0 ft / 0 m 351 ft / 107 m
21 200 ft / 61 m 11,176 ft / 3,406 m 202.00° 205.37° Asphalt 1,355 ft / 413 m 0 ft / 0 m

Approach Navaids

Runway Type Ident Frequency Range Bearing (true) Bearing (mag) Slope Elevation
21 Localiser IACA 109.90 MHz 18 nm / 33 km 202.10° 205.47° - 204 ft / 62 m (AMSL)
21 Glidescope IACA 109.90 MHz 10 nm / 19 km 203.00° 206.37° 3.00° 204 ft / 62 m (AMSL)

Popular Alternatives